createdAt,value
2022-11-14T00:00:20.142Z,9.50
2022-11-14T00:03:12.215Z,8.85
2022-11-14T00:06:05.857Z,9.05
2022-11-14T00:08:57.069Z,8.93
2022-11-14T00:11:48.096Z,8.32
2022-11-14T00:14:39.758Z,7.63
2022-11-14T00:17:30.956Z,5.85
2022-11-14T00:20:22.146Z,5.20
2022-11-14T00:23:13.221Z,5.80
2022-11-14T00:26:04.466Z,5.25
2022-11-14T00:28:55.753Z,4.68
2022-11-14T00:31:47.555Z,3.90
2022-11-14T00:34:38.353Z,4.30
2022-11-14T00:37:29.439Z,4.47
2022-11-14T00:40:20.478Z,4.63
2022-11-14T00:43:11.592Z,4.90
2022-11-14T00:46:02.609Z,4.38
2022-11-14T00:48:54.147Z,4.53
2022-11-14T00:51:45.303Z,4.25
2022-11-14T00:54:36.149Z,3.70
2022-11-14T00:57:27.196Z,3.63
2022-11-14T01:00:18.329Z,2.80
2022-11-14T01:03:09.020Z,6.10
2022-11-14T01:06:04.555Z,4.75
2022-11-14T01:08:55.652Z,4.45
2022-11-14T01:11:46.523Z,5.95
2022-11-14T01:14:37.385Z,5.05
2022-11-14T01:17:28.359Z,4.70
2022-11-14T01:20:20.092Z,5.25
2022-11-14T01:23:13.939Z,4.45
2022-11-14T01:26:07.657Z,4.43
2022-11-14T01:28:58.370Z,6.30
2022-11-14T01:31:49.231Z,6.40
2022-11-14T01:34:40.149Z,5.55
2022-11-14T01:37:31.102Z,5.35
2022-11-14T01:40:23.048Z,5.43
2022-11-14T01:43:35.465Z,4.28
2022-11-14T01:46:30.498Z,7.15
2022-11-14T01:49:25.308Z,4.75
2022-11-14T01:52:19.631Z,5.35
2022-11-14T01:55:10.994Z,6.68
2022-11-14T01:58:02.452Z,6.07
2022-11-14T02:00:53.457Z,7.15
2022-11-14T02:03:49.131Z,6.70
2022-11-14T02:06:40.529Z,6.30
2022-11-14T02:09:35.162Z,6.20
2022-11-14T02:12:26.155Z,4.93
2022-11-14T02:15:17.881Z,3.78
2022-11-14T02:18:08.875Z,3.85
2022-11-14T02:21:00.414Z,4.25
2022-11-14T02:23:51.485Z,7.07
2022-11-14T02:26:42.940Z,7.80
2022-11-14T02:29:35.230Z,7.35
2022-11-14T02:32:26.094Z,5.78
2022-11-14T02:35:17.195Z,5.25
2022-11-14T02:38:09.134Z,4.15
2022-11-14T02:41:00.107Z,4.53
2022-11-14T02:43:50.998Z,4.53
2022-11-14T02:46:42.108Z,4.22
2022-11-14T02:49:33.090Z,5.35
2022-11-14T02:52:24.022Z,6.07
2022-11-14T02:55:16.023Z,6.32
2022-11-14T02:58:07.303Z,7.05
2022-11-14T03:01:19.703Z,4.90
2022-11-14T03:04:10.174Z,3.88
2022-11-14T03:07:00.868Z,4.40
2022-11-14T03:09:51.847Z,4.43
2022-11-14T03:12:43.773Z,4.55
2022-11-14T03:15:37.178Z,3.70
2022-11-14T03:18:28.656Z,4.15
2022-11-14T03:21:21.821Z,3.00
2022-11-14T03:24:12.606Z,3.45
2022-11-14T03:27:03.679Z,3.53
2022-11-14T03:29:55.295Z,2.53
2022-11-14T03:32:46.041Z,2.97
2022-11-14T03:35:41.489Z,3.60
2022-11-14T03:38:33.366Z,3.90
2022-11-14T03:41:24.453Z,5.07
2022-11-14T03:44:15.403Z,5.95
2022-11-14T03:47:07.235Z,6.50
2022-11-14T03:49:58.415Z,5.60
2022-11-14T03:52:49.910Z,5.32
2022-11-14T03:55:43.011Z,8.27
2022-11-14T03:58:33.626Z,9.38
2022-11-14T04:01:24.788Z,9.57
2022-11-14T04:04:16.397Z,3.75
2022-11-14T04:07:07.443Z,5.15
2022-11-14T04:09:58.397Z,8.00
2022-11-14T04:12:50.753Z,7.00
2022-11-14T04:15:41.610Z,7.00
2022-11-14T04:18:32.890Z,7.07
2022-11-14T04:21:24.822Z,6.10
2022-11-14T04:24:15.466Z,4.13
2022-11-14T04:27:06.369Z,3.45
2022-11-14T04:29:57.293Z,3.13
2022-11-14T04:32:48.531Z,4.20
2022-11-14T04:35:39.774Z,4.40
2022-11-14T04:38:31.731Z,6.78
2022-11-14T04:41:23.115Z,7.32
2022-11-14T04:44:13.982Z,7.60
2022-11-14T04:47:05.092Z,6.60
2022-11-14T04:49:56.117Z,6.35
2022-11-14T04:52:47.150Z,5.68
2022-11-14T04:55:39.399Z,4.40
2022-11-14T04:58:30.344Z,3.58
2022-11-14T05:01:21.731Z,5.22
2022-11-14T05:04:12.686Z,5.65
2022-11-14T05:07:04.004Z,5.13
2022-11-14T05:09:55.347Z,6.97
2022-11-14T05:12:47.078Z,6.97
2022-11-14T05:15:38.095Z,7.30
2022-11-14T05:18:29.517Z,8.90
2022-11-14T05:21:20.717Z,7.65
2022-11-14T05:24:11.462Z,6.57
2022-11-14T05:27:02.576Z,6.00
2022-11-14T05:29:54.689Z,5.38
2022-11-14T05:32:45.536Z,6.60
2022-11-14T05:35:36.405Z,6.28
2022-11-14T05:38:27.474Z,4.18
2022-11-14T05:41:19.789Z,3.75
2022-11-14T05:44:10.814Z,3.70
2022-11-14T05:47:02.395Z,5.32
2022-11-14T05:49:53.467Z,6.82
2022-11-14T05:52:44.453Z,6.32
2022-11-14T05:55:35.379Z,7.47
2022-11-14T05:58:26.617Z,6.10
2022-11-14T06:01:19.354Z,5.72
2022-11-14T06:04:13.694Z,5.43
2022-11-14T06:07:04.783Z,5.90
2022-11-14T06:09:55.788Z,6.88
2022-11-14T06:12:47.352Z,7.78
2022-11-14T06:15:38.112Z,8.07
2022-11-14T06:18:31.105Z,7.40
2022-11-14T06:21:24.592Z,6.80
2022-11-14T06:24:15.871Z,8.10
2022-11-14T06:27:06.668Z,8.02
2022-11-14T06:29:57.689Z,5.35
2022-11-14T06:32:48.580Z,7.00
2022-11-14T06:35:39.584Z,6.15
2022-11-14T06:38:32.533Z,6.43
2022-11-14T06:41:23.994Z,7.35
2022-11-14T06:44:15.060Z,7.30
2022-11-14T06:47:06.041Z,8.02
2022-11-14T06:49:57.104Z,8.65
2022-11-14T06:52:48.294Z,9.60
2022-11-14T06:55:40.069Z,7.45
2022-11-14T06:58:33.530Z,10.32
2022-11-14T07:01:25.671Z,9.85
2022-11-14T07:04:16.668Z,8.40
2022-11-14T07:07:07.630Z,5.65
2022-11-14T07:09:58.715Z,4.88
2022-11-14T07:12:50.398Z,5.25
2022-11-14T07:15:49.578Z,6.18
2022-11-14T07:18:40.694Z,6.78
2022-11-14T07:21:33.644Z,5.57
2022-11-14T07:24:24.492Z,6.20
2022-11-14T07:27:15.464Z,7.05
2022-11-14T07:30:08.258Z,6.53
2022-11-14T07:32:59.781Z,7.45
2022-11-14T07:35:50.871Z,8.40
2022-11-14T07:38:41.886Z,7.75
2022-11-14T07:41:32.822Z,9.23
2022-11-14T07:44:23.728Z,9.57
2022-11-14T07:47:15.414Z,8.30
2022-11-14T07:50:07.622Z,8.50
2022-11-14T07:52:58.865Z,7.50
2022-11-14T07:55:50.024Z,7.90
2022-11-14T07:58:41.369Z,8.75
2022-11-14T08:01:32.670Z,7.93
2022-11-14T08:04:25.408Z,7.00
2022-11-14T08:07:16.610Z,6.03
2022-11-14T08:10:10.685Z,6.60
2022-11-14T08:13:30.277Z,7.30
2022-11-14T08:16:14.817Z,6.63
2022-11-14T08:19:06.240Z,9.18
2022-11-14T08:21:57.892Z,6.85
2022-11-14T08:24:48.578Z,8.40
2022-11-14T08:27:39.496Z,9.13
2022-11-14T08:30:30.542Z,10.23
2022-11-14T08:33:21.455Z,10.60
2022-11-14T08:36:12.570Z,12.07
2022-11-14T08:39:04.429Z,13.48
2022-11-14T08:41:55.511Z,13.50
2022-11-14T08:44:51.701Z,12.68
2022-11-14T08:47:42.773Z,11.27
2022-11-14T08:50:33.977Z,10.48
2022-11-14T08:53:24.994Z,7.15
2022-11-14T08:56:17.029Z,9.23
2022-11-14T08:59:08.257Z,7.90
2022-11-14T09:01:59.611Z,7.18
2022-11-14T09:04:50.776Z,7.03
2022-11-14T09:07:42.027Z,7.22
2022-11-14T09:10:33.528Z,6.80
2022-11-14T09:13:27.036Z,7.25
2022-11-14T09:16:18.365Z,7.00
2022-11-14T09:19:09.573Z,7.40
2022-11-14T09:22:00.653Z,9.30
2022-11-14T09:24:52.167Z,9.95
2022-11-14T09:27:43.352Z,9.07
2022-11-14T09:30:36.552Z,9.35
2022-11-14T09:33:27.744Z,11.88
2022-11-14T09:36:19.259Z,8.80
2022-11-14T09:39:10.275Z,9.98
2022-11-14T09:42:17.324Z,12.95
2022-11-14T09:45:12.010Z,9.82
2022-11-14T09:48:07.528Z,12.07
2022-11-14T09:51:07.754Z,10.90
2022-11-14T09:54:06.715Z,9.50
2022-11-14T09:56:57.858Z,8.82
2022-11-14T09:59:49.579Z,6.78
2022-11-14T10:02:53.998Z,8.10
2022-11-14T10:06:04.855Z,9.73
2022-11-14T10:09:21.511Z,10.80
2022-11-14T10:12:17.667Z,11.10
2022-11-14T10:15:16.456Z,12.60
2022-11-14T10:18:32.980Z,11.23
2022-11-14T10:21:46.521Z,11.52
2022-11-14T10:24:51.317Z,10.63
2022-11-14T10:27:55.342Z,9.27
2022-11-14T10:30:55.982Z,7.90
2022-11-14T10:33:54.046Z,6.50
2022-11-14T10:36:59.357Z,5.35
2022-11-14T10:39:52.456Z,4.90
2022-11-14T10:42:46.955Z,5.63
2022-11-14T10:45:44.363Z,6.75
2022-11-14T10:48:38.369Z,5.45
2022-11-14T10:51:35.522Z,8.80
2022-11-14T10:54:34.709Z,10.18
2022-11-14T10:57:32.364Z,12.05
2022-11-14T11:00:23.294Z,11.63
2022-11-14T11:03:14.376Z,11.40
2022-11-14T11:06:05.683Z,11.85
2022-11-14T11:09:15.157Z,15.40
2022-11-14T11:12:08.340Z,15.38
2022-11-14T11:15:14.898Z,13.85
2022-11-14T11:18:25.382Z,15.00
2022-11-14T11:21:18.146Z,12.93
2022-11-14T11:24:09.621Z,11.73
2022-11-14T11:27:19.972Z,14.98
2022-11-14T11:30:22.929Z,10.93
2022-11-14T11:33:22.844Z,13.40
2022-11-14T11:36:17.904Z,12.80
2022-11-14T11:39:19.618Z,13.40
2022-11-14T11:42:18.781Z,13.30
2022-11-14T11:45:16.859Z,16.25
2022-11-14T11:48:16.240Z,19.15
2022-11-14T11:51:15.633Z,14.98
2022-11-14T11:54:15.572Z,15.90
2022-11-14T11:57:21.237Z,18.80
2022-11-14T12:00:17.698Z,19.55
2022-11-14T12:03:13.425Z,19.83
2022-11-14T12:06:13.024Z,17.33
2022-11-14T12:09:14.514Z,15.98
2022-11-14T12:12:12.750Z,17.58
2022-11-14T12:15:17.617Z,15.65
2022-11-14T12:18:35.803Z,19.98
2022-11-14T12:21:41.240Z,14.98
2022-11-14T12:25:00.707Z,17.80
2022-11-14T12:28:09.956Z,16.60
2022-11-14T12:31:04.230Z,17.92
2022-11-14T12:34:01.279Z,17.45
2022-11-14T12:36:52.629Z,16.85
2022-11-14T12:39:56.379Z,17.50
2022-11-14T12:42:48.376Z,16.73
2022-11-14T12:46:00.259Z,16.10
2022-11-14T12:48:51.027Z,16.40
2022-11-14T12:51:51.081Z,16.15
2022-11-14T12:54:43.799Z,16.48
2022-11-14T12:57:50.051Z,15.65
2022-11-14T13:01:03.351Z,15.65
2022-11-14T13:04:17.878Z,16.48
2022-11-14T13:07:34.095Z,14.43
2022-11-14T13:10:30.225Z,13.50
2022-11-14T13:13:39.851Z,14.55
2022-11-14T13:20:04.712Z,10.65
2022-11-14T13:22:56.638Z,11.57
2022-11-14T13:25:47.923Z,12.70
2022-11-14T13:28:47.416Z,10.52
2022-11-14T13:34:49.591Z,11.05
2022-11-14T13:38:12.619Z,12.48
2022-11-14T13:41:24.177Z,10.68
2022-11-14T13:44:47.451Z,12.52
2022-11-14T13:48:05.990Z,12.55
2022-11-14T13:51:15.543Z,15.35
2022-11-14T13:54:17.917Z,13.20
2022-11-14T13:57:20.186Z,12.25
2022-11-14T14:00:19.604Z,10.88
2022-11-14T14:03:23.108Z,10.65
2022-11-14T14:06:35.073Z,11.80
2022-11-14T14:09:32.547Z,11.07
2022-11-14T14:12:50.348Z,8.93
2022-11-14T14:15:49.945Z,9.65
2022-11-14T14:21:45.175Z,8.38
2022-11-14T14:24:51.228Z,7.70
2022-11-14T14:27:54.690Z,7.30
2022-11-14T14:31:11.879Z,6.05
2022-11-14T14:34:03.463Z,6.97
2022-11-14T14:36:56.366Z,6.55
2022-11-14T14:39:58.999Z,11.15
2022-11-14T14:42:51.478Z,13.32
2022-11-14T14:45:47.997Z,16.52
2022-11-14T14:48:41.826Z,21.52
2022-11-14T14:51:34.675Z,24.58
2022-11-14T14:54:28.735Z,20.73
2022-11-14T14:57:23.348Z,21.38
2022-11-14T15:00:20.136Z,19.50
2022-11-14T15:03:11.163Z,21.27
2022-11-14T15:06:04.571Z,20.13
2022-11-14T15:08:56.555Z,22.13
2022-11-14T15:11:51.810Z,20.20
2022-11-14T15:14:44.518Z,19.08
2022-11-14T15:17:36.081Z,17.80
2022-11-14T15:20:28.977Z,19.98
2022-11-14T15:23:20.784Z,20.42
2022-11-14T15:26:15.977Z,19.67
2022-11-14T15:29:17.325Z,20.73
2022-11-14T15:32:19.260Z,20.63
2022-11-14T15:35:25.459Z,21.02
2022-11-14T15:38:54.226Z,21.83
2022-11-14T15:41:32.966Z,18.95
2022-11-14T15:44:30.637Z,21.05
2022-11-14T15:47:24.853Z,21.70
2022-11-14T15:50:26.144Z,22.35
2022-11-14T15:53:22.824Z,20.77
2022-11-14T15:56:14.044Z,21.98
2022-11-14T15:59:05.332Z,20.58
2022-11-14T16:01:59.522Z,23.35
2022-11-14T16:04:52.667Z,21.88
2022-11-14T16:07:43.528Z,24.58
2022-11-14T16:10:34.579Z,24.15
2022-11-14T16:13:25.630Z,26.92
2022-11-14T16:16:16.653Z,23.30
2022-11-14T16:19:08.355Z,25.35
2022-11-14T16:22:02.033Z,23.98
2022-11-14T16:24:53.096Z,23.98
2022-11-14T16:27:43.942Z,26.85
2022-11-14T16:30:35.077Z,25.75
2022-11-14T16:33:26.219Z,27.88
2022-11-14T16:36:21.244Z,27.48
2022-11-14T16:39:13.474Z,25.80
2022-11-14T16:42:04.702Z,24.35
2022-11-14T16:45:00.304Z,24.33
2022-11-14T16:47:51.842Z,24.92
2022-11-14T16:50:43.030Z,26.33
2022-11-14T16:53:34.093Z,25.30
2022-11-14T16:56:25.877Z,24.20
2022-11-14T16:59:17.180Z,24.17
2022-11-14T17:02:13.538Z,24.27
2022-11-14T17:05:05.052Z,25.98
2022-11-14T17:07:56.152Z,24.42
2022-11-14T17:10:47.105Z,24.33
2022-11-14T17:13:39.186Z,25.95
2022-11-14T17:16:30.114Z,27.27
2022-11-14T17:19:21.406Z,30.92
2022-11-14T17:22:12.618Z,30.27
2022-11-14T17:25:03.674Z,29.77
2022-11-14T17:27:54.318Z,30.75
2022-11-14T17:30:46.057Z,30.25
2022-11-14T17:33:37.658Z,26.85
2022-11-14T17:36:30.601Z,31.08
2022-11-14T17:39:21.919Z,27.83
2022-11-14T17:42:13.117Z,27.65
2022-11-14T17:45:04.758Z,23.17
2022-11-14T17:47:56.522Z,20.63
2022-11-14T17:50:47.284Z,25.55
2022-11-14T17:53:38.804Z,42.85
2022-11-14T17:56:29.673Z,31.42
2022-11-14T17:59:21.115Z,44.97
2022-11-14T18:02:13.585Z,41.25
2022-11-14T18:05:06.679Z,44.95
2022-11-14T18:07:57.690Z,45.55
2022-11-14T18:10:48.746Z,42.00
2022-11-14T18:13:40.727Z,46.70
2022-11-14T18:16:50.825Z,50.50
2022-11-14T18:19:42.498Z,40.83
2022-11-14T18:22:34.294Z,63.10
2022-11-14T18:25:25.375Z,62.50
2022-11-14T18:28:16.400Z,59.03
2022-11-14T18:31:09.975Z,45.75
2022-11-14T18:34:02.210Z,42.25
2022-11-14T18:36:53.359Z,32.25
2022-11-14T18:39:45.036Z,30.30
2022-11-14T18:42:35.876Z,17.88
2022-11-14T18:45:26.699Z,27.30
2022-11-14T18:48:17.634Z,39.10
2022-11-14T18:51:11.710Z,42.38
2022-11-14T18:54:02.692Z,43.15
2022-11-14T18:56:54.250Z,46.95
2022-11-14T18:59:44.950Z,45.63
2022-11-14T19:02:36.465Z,52.22
2022-11-14T19:05:27.505Z,57.42
2022-11-14T19:08:18.583Z,63.95
2022-11-14T19:11:32.311Z,82.07
2022-11-14T19:14:23.855Z,92.22
2022-11-14T19:17:18.042Z,101.68
2022-11-14T19:20:14.406Z,109.90
2022-11-14T19:23:05.693Z,105.10
2022-11-14T19:25:59.332Z,103.07
2022-11-14T19:28:50.327Z,89.65
2022-11-14T19:31:42.910Z,84.60
2022-11-14T19:34:33.571Z,84.25
2022-11-14T19:37:24.616Z,87.75
2022-11-14T19:40:15.545Z,86.78
2022-11-14T19:43:08.374Z,75.68
2022-11-14T19:46:02.115Z,75.30
2022-11-14T19:48:55.961Z,65.68
2022-11-14T19:51:46.755Z,65.40
2022-11-14T19:54:37.920Z,60.70
2022-11-14T19:57:30.460Z,63.83
2022-11-14T20:00:24.159Z,57.72
2022-11-14T20:03:14.783Z,53.83
2022-11-14T20:06:14.181Z,47.60
2022-11-14T20:09:07.218Z,44.60
2022-11-14T20:11:58.285Z,46.25
2022-11-14T20:14:49.381Z,40.25
2022-11-14T20:17:40.537Z,41.83
2022-11-14T20:20:31.510Z,36.13
2022-11-14T20:23:23.331Z,37.63
2022-11-14T20:26:15.486Z,31.17
2022-11-14T20:29:07.189Z,28.25
2022-11-14T20:31:58.375Z,25.98
2022-11-14T20:34:49.407Z,25.20
2022-11-14T20:37:40.454Z,23.08
2022-11-14T20:40:33.141Z,22.83
2022-11-14T20:43:24.586Z,22.00
2022-11-14T20:46:17.225Z,21.52
2022-11-14T20:49:08.835Z,26.30
2022-11-14T20:52:01.083Z,25.92
2022-11-14T20:54:51.987Z,31.13
2022-11-14T20:57:43.846Z,31.52
2022-11-14T21:00:35.309Z,29.67
2022-11-14T21:03:24.427Z,34.40
2022-11-14T21:06:16.446Z,45.25
2022-11-14T21:09:08.961Z,48.75
2022-11-14T21:11:59.914Z,51.83
2022-11-14T21:14:51.464Z,61.25
2022-11-14T21:17:42.066Z,59.13
2022-11-14T21:20:32.990Z,40.83
2022-11-14T21:23:23.991Z,30.27
2022-11-14T21:26:16.442Z,27.95
2022-11-14T21:29:11.446Z,21.42
2022-11-14T21:32:03.229Z,24.98
2022-11-14T21:34:54.144Z,21.92
2022-11-14T21:37:44.984Z,23.20
2022-11-14T21:40:35.882Z,22.08
2022-11-14T21:43:26.531Z,21.88
2022-11-14T21:46:17.556Z,25.35
2022-11-14T21:49:09.722Z,27.13
2022-11-14T21:52:00.649Z,31.63
2022-11-14T21:54:51.506Z,33.00
2022-11-14T21:57:42.608Z,35.13
2022-11-14T22:00:33.515Z,37.05
2022-11-14T22:03:42.802Z,35.75
2022-11-14T22:06:34.616Z,31.50
2022-11-14T22:09:26.222Z,29.92
2022-11-14T22:12:17.553Z,26.52
2022-11-14T22:15:09.302Z,20.83
2022-11-14T22:18:00.329Z,22.05
2022-11-14T22:20:54.917Z,26.77
2022-11-14T22:23:46.672Z,25.20
2022-11-14T22:26:39.269Z,24.08
2022-11-14T22:29:30.306Z,23.52
2022-11-14T22:32:21.277Z,24.83
2022-11-14T22:35:12.423Z,24.83
2022-11-14T22:38:03.334Z,25.33
2022-11-14T22:40:56.194Z,27.23
2022-11-14T22:43:47.319Z,26.08
2022-11-14T22:46:38.395Z,32.15
2022-11-14T22:49:29.309Z,28.35
2022-11-14T22:52:20.210Z,23.52
2022-11-14T22:55:17.723Z,24.67
2022-11-14T22:58:09.697Z,23.73
2022-11-14T23:01:01.745Z,24.02
2022-11-14T23:03:54.563Z,21.38
2022-11-14T23:06:45.677Z,27.88
2022-11-14T23:09:36.506Z,25.42
2022-11-14T23:12:27.574Z,26.83
2022-11-14T23:15:19.293Z,27.63
2022-11-14T23:18:10.202Z,24.48
2022-11-14T23:21:04.086Z,21.65
2022-11-14T23:23:56.587Z,20.70
2022-11-14T23:26:47.632Z,23.35
2022-11-14T23:29:38.362Z,22.20
2022-11-14T23:32:30.413Z,23.48
2022-11-14T23:35:21.414Z,23.05
2022-11-14T23:38:13.003Z,23.90
2022-11-14T23:41:03.990Z,22.50
2022-11-14T23:43:54.981Z,19.73
2022-11-14T23:46:46.062Z,22.20
2022-11-14T23:49:37.769Z,22.23
2022-11-14T23:52:28.547Z,22.88
2022-11-14T23:55:19.676Z,24.25
2022-11-14T23:58:10.766Z,23.42
